Overseas Long Beach — WAAT — position and weather

sailwx.info

Track history (hours):
 
Tides and Currents Weather Stations Pressure Air Temp Water Temp Dewpoint Dewpoint Depression Visibility Wind Speed Wind Dir Waves Ship Positions

Overseas Long Beach

Owner: ASC Leasing II, Inc., Philadelphia, PA. More information available from US FCC via Universal Licensing System and Coast Guard Vessel Documentation Center.

Last reported at 2015-Jan-26 16:00 UTC. Time now 2015-Jan-27 10:29 UTC.
Position N 24°12' W 082°30'.

Length 181 m; draft 7.8 m.

Type: Tanker. MMSI: 367703000.

Wind from 280 at 25 knots

Waves 1.0 meters (3 feet), 4 second period

Barometer 1014.5 mb
Air temperature 25.6 ° C
Visibility: greater than 10.8 NM
Dewpoint 17.1 ° C

Date/timePositionNaut miles runAvg speedWind from/ knotsBaromVisibWave heightAir tempDewpointWater temp
2015-Jan-26 16:00N 24°12' W 082°30'15911.0 280 / 251014.510.8 1.025.617.1
2015-Jan-26 01:33N 25°34' W 080°00'1211.8
2015-Jan-26 00:34N 25°46' W 079°59'1212.1
2015-Jan-25 23:33N 25°58' W 079°59'1312.8
2015-Jan-25 22:33N 26°10' W 079°58'1110.6
2015-Jan-25 21:33N 26°21' W 079°58'1313.0
2015-Jan-25 20:33N 26°34' W 079°58'1313.4
2015-Jan-25 19:34N 26°47' W 079°58'1312.8
2015-Jan-25 18:34N 27°00' W 079°57'9713.8
2015-Jan-25 11:33N 28°37' W 080°06'  
2015-Jan-22 20:32N 26°58' W 079°50'3417.5
2015-Jan-22 18:34N 26°23' W 079°48'1717.2
2015-Jan-22 17:33N 26°06' W 079°49'1716.7
2015-Jan-22 16:32N 25°49' W 079°49'2316.5
2015-Jan-22 15:08N 25°27' W 079°57'60413.1
2015-Jan-20 17:00N 27°18' W 091°00'229 7.8 040 / 91017.010.8 0.521.116.8
2015-Jan-19 11:32N 30°02' W 094°02'0 0.0
2015-Jan-19 10:29N 30°02' W 094°02'0 0.0
2015-Jan-19 09:21N 30°02' W 094°02'0 0.0
2015-Jan-19 06:30N 30°02' W 094°02'0 0.0
2015-Jan-19 05:33N 30°02' W 094°02'0 0.0
2015-Jan-19 04:33N 30°02' W 094°02'  
Track history (hours):
 
Tides and Currents Weather Stations Pressure Air Temp Water Temp Dewpoint Dewpoint Depression Visibility Wind Speed Wind Dir Waves Ship Positions

Overseas Long Beach

Owner: ASC Leasing II, Inc., Philadelphia, PA. More information available from US FCC via Universal Licensing System and Coast Guard Vessel Documentation Center.

Last reported at 2015-Jan-26 16:00 UTC. Time now 2015-Jan-27 10:29 UTC.
Position N 24°12' W 082°30'.

Length 181 m; draft 7.8 m.

Type: Tanker. MMSI: 367703000.

Wind from 280 at 25 knots

Waves 1.0 meters (3 feet), 4 second period

Barometer 1014.5 mb
Air temperature 25.6 ° C
Visibility: greater than 10.8 NM
Dewpoint 17.1 ° C

Date/timePositionNaut miles runAvg speedWind from/ knotsBaromVisibWave heightAir tempDewpointWater temp
2015-Jan-26 16:00N 24°12' W 082°30'15911.0 280 / 251014.510.8 1.025.617.1
2015-Jan-26 01:33N 25°34' W 080°00'1211.8
2015-Jan-26 00:34N 25°46' W 079°59'1212.1
2015-Jan-25 23:33N 25°58' W 079°59'1312.8
2015-Jan-25 22:33N 26°10' W 079°58'1110.6
2015-Jan-25 21:33N 26°21' W 079°58'1313.0
2015-Jan-25 20:33N 26°34' W 079°58'1313.4
2015-Jan-25 19:34N 26°47' W 079°58'1312.8
2015-Jan-25 18:34N 27°00' W 079°57'9713.8
2015-Jan-25 11:33N 28°37' W 080°06'  
2015-Jan-22 20:32N 26°58' W 079°50'3417.5
2015-Jan-22 18:34N 26°23' W 079°48'1717.2
2015-Jan-22 17:33N 26°06' W 079°49'1716.7
2015-Jan-22 16:32N 25°49' W 079°49'2316.5
2015-Jan-22 15:08N 25°27' W 079°57'60413.1
2015-Jan-20 17:00N 27°18' W 091°00'229 7.8 040 / 91017.010.8 0.521.116.8
2015-Jan-19 11:32N 30°02' W 094°02'0 0.0
2015-Jan-19 10:29N 30°02' W 094°02'0 0.0
2015-Jan-19 09:21N 30°02' W 094°02'0 0.0
2015-Jan-19 06:30N 30°02' W 094°02'0 0.0
2015-Jan-19 05:33N 30°02' W 094°02'0 0.0
2015-Jan-19 04:33N 30°02' W 094°02'  

Dump ship's entire track history